Lecoma, Missouri
Current Conditions -  °F | °C
As of 11:58 PM on Tuesday 21 Oct 2014 (Local Time) from KTBN Reporting Station
Clear Clear  
Wind Chill: 52°   Ceiling: Unl
Heat Index: 52°   Visibility: 10mi
Dew Point: 46°   Wind: 5mph
Humidity: 80%   Direction: 110°ESE
Pressure: 30.16"   Gusts: NA
Location:  37.78°N, 91.73°W
Report Text: KTBN 220458Z AUTO 11004KT 10SM CLR 11/08 A3016 RMK AO2 SLP213 T01130080
Loading
Personal Weather Stations






























Interactive Weather Map
Tropical Storm Tracking
New forecast layout! Learn more

10-Day Weather Forecast

Advertisements
Track Severe Weather on mobile